createdAt,value
2023-03-14T00:00:52.239Z,7.25
2023-03-14T00:03:19.183Z,7.32
2023-03-14T00:05:45.959Z,7.20
2023-03-14T00:08:12.800Z,7.17
2023-03-14T00:10:39.754Z,7.17
2023-03-14T00:13:06.555Z,7.13
2023-03-14T00:15:35.159Z,7.14
2023-03-14T00:18:02.211Z,7.09
2023-03-14T00:20:28.889Z,7.02
2023-03-14T00:22:55.542Z,6.93
2023-03-14T00:25:22.219Z,6.93
2023-03-14T00:27:51.783Z,6.90
2023-03-14T00:30:18.766Z,6.92
2023-03-14T00:32:45.558Z,6.89
2023-03-14T00:35:12.468Z,6.90
2023-03-14T00:37:39.139Z,6.90
2023-03-14T00:40:08.217Z,6.91
2023-03-14T00:42:35.788Z,6.89
2023-03-14T00:45:02.488Z,6.87
2023-03-14T00:47:29.133Z,6.92
2023-03-14T00:49:55.833Z,6.97
2023-03-14T00:52:22.486Z,6.92
2023-03-14T00:54:49.122Z,6.95
2023-03-14T00:57:15.699Z,6.98
2023-03-14T00:59:42.289Z,7.02
2023-03-14T01:02:08.966Z,6.99
2023-03-14T01:04:35.801Z,7.04
2023-03-14T01:07:02.511Z,7.03
2023-03-14T01:09:29.133Z,7.08
2023-03-14T01:11:55.777Z,7.06
2023-03-14T01:14:22.626Z,7.01
2023-03-14T01:16:49.312Z,6.98
2023-03-14T01:19:15.954Z,6.99
2023-03-14T01:21:42.591Z,6.97
2023-03-14T01:24:12.212Z,6.87
2023-03-14T01:26:38.904Z,6.91
2023-03-14T01:29:05.528Z,6.85
2023-03-14T01:31:32.422Z,6.82
2023-03-14T01:33:59.455Z,6.84
2023-03-14T01:36:26.122Z,6.87
2023-03-14T01:38:52.851Z,6.86
2023-03-14T01:41:22.940Z,6.82
2023-03-14T01:43:50.409Z,6.84
2023-03-14T01:46:29.098Z,6.75
2023-03-14T01:49:08.126Z,6.82
2023-03-14T01:51:41.765Z,6.77
2023-03-14T01:54:17.446Z,6.75
2023-03-14T01:56:48.745Z,6.75
2023-03-14T01:59:15.651Z,6.67
2023-03-14T02:01:45.874Z,6.70
2023-03-14T02:04:12.866Z,6.74
2023-03-14T02:06:50.937Z,6.75
2023-03-14T02:09:17.890Z,6.74
2023-03-14T02:11:45.282Z,6.75
2023-03-14T02:14:22.672Z,6.74
2023-03-14T02:16:49.403Z,6.78
2023-03-14T02:19:23.014Z,6.79
2023-03-14T02:22:08.606Z,6.81
2023-03-14T02:24:42.264Z,6.84
2023-03-14T02:27:16.983Z,6.86
2023-03-14T02:29:52.028Z,6.82
2023-03-14T02:32:20.748Z,6.81
2023-03-14T02:34:50.634Z,6.73
2023-03-14T02:37:20.389Z,6.73
2023-03-14T02:39:49.862Z,6.77
2023-03-14T02:42:17.468Z,6.76
2023-03-14T02:45:09.996Z,6.82
2023-03-14T02:47:42.490Z,6.76
2023-03-14T02:50:16.560Z,6.77
2023-03-14T02:52:43.563Z,6.72
2023-03-14T02:55:10.943Z,6.73
2023-03-14T02:57:37.531Z,6.70
2023-03-14T03:00:08.306Z,6.69
2023-03-14T03:02:34.943Z,6.67
2023-03-14T03:05:01.690Z,6.65
2023-03-14T03:07:28.337Z,6.70
2023-03-14T03:09:55.064Z,6.58
2023-03-14T03:12:21.785Z,6.57
2023-03-14T03:14:48.416Z,6.59
2023-03-14T03:17:15.107Z,6.63
2023-03-14T03:19:41.934Z,6.64
2023-03-14T03:22:08.589Z,6.55
2023-03-14T03:24:35.339Z,6.57
2023-03-14T03:27:02.044Z,6.52
2023-03-14T03:29:28.772Z,6.54
2023-03-14T03:31:55.486Z,6.49
2023-03-14T03:34:22.082Z,6.39
2023-03-14T03:36:48.714Z,6.36
2023-03-14T03:39:15.481Z,6.30
2023-03-14T03:41:42.110Z,6.30
2023-03-14T03:44:08.797Z,6.29
2023-03-14T03:46:35.481Z,6.35
2023-03-14T03:49:02.576Z,6.34
2023-03-14T03:51:29.291Z,6.45
2023-03-14T03:53:57.505Z,6.38
2023-03-14T03:56:24.117Z,6.39
2023-03-14T03:58:50.735Z,6.44
2023-03-14T04:01:17.551Z,6.42
2023-03-14T04:03:44.453Z,6.32
2023-03-14T04:06:13.859Z,6.35
2023-03-14T04:08:41.789Z,6.48
2023-03-14T04:11:08.669Z,6.50
2023-03-14T04:13:35.387Z,6.48
2023-03-14T04:16:02.403Z,6.50
2023-03-14T04:18:31.182Z,6.54
2023-03-14T04:20:58.793Z,6.51
2023-03-14T04:23:27.078Z,6.50
2023-03-14T04:25:54.758Z,6.44
2023-03-14T04:28:21.597Z,6.48
2023-03-14T04:30:48.328Z,6.50
2023-03-14T04:33:18.209Z,6.49
2023-03-14T04:35:46.353Z,6.39
2023-03-14T04:38:13.844Z,6.48
2023-03-14T04:40:42.293Z,6.48
2023-03-14T04:43:11.050Z,6.45
2023-03-14T04:45:38.074Z,6.51
2023-03-14T04:48:04.876Z,6.42
2023-03-14T04:50:31.519Z,6.45
2023-03-14T04:52:58.159Z,6.46
2023-03-14T04:55:25.031Z,6.46
2023-03-14T04:57:51.704Z,6.36
2023-03-14T05:00:19.380Z,6.33
2023-03-14T05:02:46.132Z,6.38
2023-03-14T05:05:12.852Z,6.35
2023-03-14T05:07:39.523Z,6.32
2023-03-14T05:10:06.513Z,6.32
2023-03-14T05:12:33.117Z,6.35
2023-03-14T05:14:59.818Z,6.38
2023-03-14T05:17:26.452Z,6.27
2023-03-14T05:19:53.068Z,6.16
2023-03-14T05:22:19.718Z,6.22
2023-03-14T05:24:46.383Z,6.14
2023-03-14T05:27:13.066Z,6.11
2023-03-14T05:29:39.755Z,6.10
2023-03-14T05:32:06.428Z,6.15
2023-03-14T05:34:33.331Z,6.05
2023-03-14T05:36:59.957Z,6.02
2023-03-14T05:39:26.581Z,6.07
2023-03-14T05:41:54.961Z,6.02
2023-03-14T05:44:21.694Z,5.93
2023-03-14T05:46:48.458Z,5.85
2023-03-14T05:49:15.090Z,5.82
2023-03-14T05:51:41.751Z,5.69
2023-03-14T05:54:08.500Z,5.58
2023-03-14T05:56:35.172Z,5.54
2023-03-14T05:59:04.544Z,5.46
2023-03-14T06:01:31.459Z,5.53
2023-03-14T06:03:58.090Z,5.44
2023-03-14T06:06:24.909Z,5.51
2023-03-14T06:08:51.568Z,5.47
2023-03-14T06:11:18.267Z,5.40
2023-03-14T06:13:44.954Z,5.41
2023-03-14T06:16:11.615Z,5.35
2023-03-14T06:18:38.329Z,5.34
2023-03-14T06:21:05.294Z,5.23
2023-03-14T06:23:32.820Z,5.28
2023-03-14T06:26:00.164Z,5.35
2023-03-14T06:28:27.095Z,5.38
2023-03-14T06:30:53.817Z,5.40
2023-03-14T06:33:20.546Z,5.44
2023-03-14T06:35:47.195Z,5.55
2023-03-14T06:38:13.856Z,5.49
2023-03-14T06:40:40.477Z,5.39
2023-03-14T06:43:07.250Z,5.44
2023-03-14T06:45:33.862Z,5.51
2023-03-14T06:48:00.486Z,5.56
2023-03-14T06:50:27.117Z,5.57
2023-03-14T06:52:53.970Z,5.55
2023-03-14T06:55:22.777Z,5.59
2023-03-14T06:57:49.616Z,5.63
2023-03-14T07:00:16.835Z,5.80
2023-03-14T07:02:43.738Z,5.90
2023-03-14T07:05:11.482Z,6.13
2023-03-14T07:07:38.241Z,6.50
2023-03-14T07:10:05.379Z,6.47
2023-03-14T07:12:32.002Z,6.64
2023-03-14T07:15:05.707Z,6.68
2023-03-14T07:17:39.059Z,7.02
2023-03-14T07:20:08.233Z,7.34
2023-03-14T07:22:35.251Z,7.19
2023-03-14T07:25:01.954Z,7.22
2023-03-14T07:27:28.618Z,7.35
2023-03-14T07:29:55.259Z,7.37
2023-03-14T07:32:21.994Z,7.56
2023-03-14T07:34:48.685Z,7.65
2023-03-14T07:37:15.354Z,9.35
2023-03-14T07:39:42.031Z,12.49
2023-03-14T07:42:08.699Z,14.55
2023-03-14T07:44:35.632Z,14.56
2023-03-14T07:47:02.727Z,15.06
2023-03-14T07:49:29.451Z,15.65
2023-03-14T07:51:56.193Z,15.92
2023-03-14T07:54:23.796Z,13.07
2023-03-14T07:56:50.461Z,14.53
2023-03-14T07:59:17.292Z,13.42
2023-03-14T08:01:43.998Z,14.51
2023-03-14T08:04:11.011Z,11.80
2023-03-14T08:06:37.918Z,12.48
2023-03-14T08:09:05.571Z,13.02
2023-03-14T08:11:32.236Z,11.52
2023-03-14T08:13:58.909Z,11.02
2023-03-14T08:16:25.687Z,11.48
2023-03-14T08:18:52.432Z,14.52
2023-03-14T08:21:19.130Z,14.47
2023-03-14T08:23:45.767Z,12.26
2023-03-14T08:26:12.385Z,11.35
2023-03-14T08:28:39.016Z,10.98
2023-03-14T08:31:05.970Z,10.83
2023-03-14T08:33:32.884Z,10.41
2023-03-14T08:36:02.456Z,10.08
2023-03-14T08:38:29.360Z,9.64
2023-03-14T08:40:58.614Z,9.75
2023-03-14T08:43:26.000Z,9.46
2023-03-14T08:45:52.700Z,9.30
2023-03-14T08:48:20.472Z,9.34
2023-03-14T08:50:48.318Z,9.25
2023-03-14T08:53:15.069Z,8.83
2023-03-14T08:55:41.717Z,8.92
2023-03-14T08:58:08.400Z,8.86
2023-03-14T09:00:35.043Z,8.96
2023-03-14T09:03:01.659Z,8.80
2023-03-14T09:05:28.332Z,8.71
2023-03-14T09:07:55.179Z,8.72
2023-03-14T09:10:21.829Z,8.45
2023-03-14T09:12:48.575Z,8.68
2023-03-14T09:15:15.271Z,8.67
2023-03-14T09:17:44.446Z,8.66
2023-03-14T09:20:11.905Z,8.72
2023-03-14T09:22:38.555Z,8.71
2023-03-14T09:25:06.310Z,8.70
2023-03-14T09:27:33.006Z,8.60
2023-03-14T09:29:59.646Z,8.94
2023-03-14T09:32:26.342Z,9.11
2023-03-14T09:34:53.005Z,9.00
2023-03-14T09:37:21.079Z,8.81
2023-03-14T09:39:47.773Z,8.71
2023-03-14T09:42:18.675Z,8.79
2023-03-14T09:45:01.509Z,8.73
2023-03-14T09:47:29.511Z,8.84
2023-03-14T09:49:56.159Z,8.73
2023-03-14T09:52:27.859Z,8.82
2023-03-14T09:55:07.132Z,8.71
2023-03-14T09:57:36.551Z,8.59
2023-03-14T10:00:21.269Z,8.66
2023-03-14T10:03:15.021Z,8.63
2023-03-14T10:05:43.006Z,8.47
2023-03-14T10:08:14.000Z,8.54
2023-03-14T10:10:41.683Z,8.80
2023-03-14T10:13:28.030Z,8.89
2023-03-14T10:15:59.825Z,8.85
2023-03-14T10:18:29.244Z,8.79
2023-03-14T10:21:18.656Z,8.72
2023-03-14T10:23:48.525Z,8.90
2023-03-14T10:26:37.858Z,8.98
2023-03-14T10:29:11.630Z,8.95
2023-03-14T10:32:04.160Z,8.79
2023-03-14T10:34:36.491Z,8.71
2023-03-14T10:37:22.187Z,8.56
2023-03-14T10:39:52.030Z,8.54
2023-03-14T10:42:32.969Z,8.90
2023-03-14T10:45:03.708Z,8.89
2023-03-14T10:47:31.029Z,8.84
2023-03-14T10:49:58.299Z,8.57
2023-03-14T10:52:31.452Z,8.22
2023-03-14T10:55:13.668Z,8.19
2023-03-14T10:57:42.283Z,8.02
2023-03-14T11:00:19.859Z,7.78
2023-03-14T11:03:15.393Z,7.72
2023-03-14T11:05:56.461Z,7.66
2023-03-14T11:08:47.768Z,7.35
2023-03-14T11:11:14.394Z,7.43
2023-03-14T11:13:53.297Z,7.32
2023-03-14T11:16:22.899Z,7.18
2023-03-14T11:19:38.286Z,7.43
2023-03-14T11:22:13.774Z,7.32
2023-03-14T11:24:49.574Z,7.47
2023-03-14T11:27:16.225Z,7.47
2023-03-14T11:29:54.783Z,7.51
2023-03-14T11:32:41.616Z,7.62
2023-03-14T11:35:36.843Z,7.42
2023-03-14T11:38:21.916Z,7.68
2023-03-14T11:40:51.421Z,7.42
2023-03-14T11:43:54.818Z,7.28
2023-03-14T11:46:26.278Z,7.25
2023-03-14T11:49:01.953Z,7.11
2023-03-14T11:51:35.319Z,7.48
2023-03-14T11:54:23.464Z,7.15
2023-03-14T11:56:56.605Z,7.27
2023-03-14T11:59:30.375Z,7.25
2023-03-14T12:02:02.675Z,7.83
2023-03-14T12:04:52.089Z,7.25
2023-03-14T12:07:22.656Z,7.33
2023-03-14T12:09:52.150Z,7.11
2023-03-14T12:12:23.478Z,7.10
2023-03-14T12:15:00.142Z,7.01
2023-03-14T12:17:36.086Z,6.83
2023-03-14T12:20:07.665Z,7.22
2023-03-14T12:22:37.479Z,7.32
2023-03-14T12:25:08.040Z,6.93
2023-03-14T12:27:57.733Z,6.89
2023-03-14T12:30:33.474Z,6.88
2023-03-14T12:33:18.285Z,6.83
2023-03-14T12:35:53.776Z,6.77
2023-03-14T12:38:53.436Z,6.67
2023-03-14T12:41:35.894Z,6.27
2023-03-14T12:44:30.574Z,6.07
2023-03-14T12:47:01.604Z,6.44
2023-03-14T12:49:32.900Z,6.19
2023-03-14T12:52:01.175Z,6.35
2023-03-14T12:55:05.805Z,6.53
2023-03-14T12:57:37.767Z,6.37
2023-03-14T13:00:30.864Z,6.12
2023-03-14T13:03:13.414Z,6.70
2023-03-14T13:05:56.930Z,6.64
2023-03-14T13:08:43.702Z,6.53
2023-03-14T13:11:14.127Z,6.20
2023-03-14T13:13:50.234Z,6.48
2023-03-14T13:16:20.433Z,6.55
2023-03-14T13:18:50.399Z,6.37
2023-03-14T13:21:22.013Z,6.74
2023-03-14T13:23:56.115Z,6.67
2023-03-14T13:26:24.382Z,6.32
2023-03-14T13:28:51.154Z,6.91
2023-03-14T13:31:26.642Z,7.17
2023-03-14T13:34:01.396Z,6.44
2023-03-14T13:36:28.649Z,6.66
2023-03-14T13:39:05.737Z,6.82
2023-03-14T13:41:32.476Z,6.77
2023-03-14T13:44:04.835Z,6.77
2023-03-14T13:46:34.773Z,7.76
2023-03-14T13:49:12.575Z,7.03
2023-03-14T13:51:42.688Z,7.25
2023-03-14T13:54:18.315Z,7.50
2023-03-14T13:56:45.481Z,7.26
2023-03-14T13:59:32.813Z,6.79
2023-03-14T14:02:04.418Z,5.90
2023-03-14T14:04:36.358Z,6.18
2023-03-14T14:07:10.405Z,6.18
2023-03-14T14:09:46.480Z,6.21
2023-03-14T14:12:17.841Z,6.31
2023-03-14T14:14:54.680Z,6.53
2023-03-14T14:17:31.932Z,6.90
2023-03-14T14:20:00.918Z,6.31
2023-03-14T14:22:28.409Z,6.40
2023-03-14T14:24:55.474Z,6.48
2023-03-14T14:27:36.073Z,6.60
2023-03-14T14:30:19.480Z,6.36
2023-03-14T14:32:48.778Z,5.60
2023-03-14T14:35:36.062Z,5.82
2023-03-14T14:38:04.080Z,6.02
2023-03-14T14:40:32.062Z,5.98
2023-03-14T14:43:06.248Z,5.70
2023-03-14T14:45:35.631Z,5.65
2023-03-14T14:48:02.193Z,5.76
2023-03-14T14:50:38.892Z,5.70
2023-03-14T14:53:24.594Z,5.83
2023-03-14T14:55:53.558Z,5.96
2023-03-14T14:58:27.407Z,6.19
2023-03-14T15:00:58.411Z,6.34
2023-03-14T15:03:29.679Z,5.88
2023-03-14T15:05:56.747Z,5.80
2023-03-14T15:08:25.123Z,5.70
2023-03-14T15:10:51.949Z,5.90
2023-03-14T15:13:18.753Z,5.90
2023-03-14T15:15:47.199Z,6.06
2023-03-14T15:18:19.334Z,6.22
2023-03-14T15:20:46.507Z,5.63
2023-03-14T15:23:15.865Z,5.62
2023-03-14T15:25:54.972Z,5.48
2023-03-14T15:28:24.488Z,5.64
2023-03-14T15:30:58.977Z,5.90
2023-03-14T15:33:28.805Z,6.21
2023-03-14T15:35:55.785Z,6.33
2023-03-14T15:38:23.989Z,5.92
2023-03-14T15:40:52.361Z,6.10
2023-03-14T15:43:20.107Z,6.12
2023-03-14T15:45:47.283Z,5.92
2023-03-14T15:48:20.033Z,5.94
2023-03-14T15:50:46.779Z,5.93
2023-03-14T15:53:14.851Z,6.33
2023-03-14T15:55:41.469Z,6.16
2023-03-14T15:58:17.007Z,6.51
2023-03-14T16:00:44.379Z,6.37
2023-03-14T16:03:13.212Z,6.04
2023-03-14T16:05:40.816Z,5.83
2023-03-14T16:08:07.992Z,5.67
2023-03-14T16:10:34.749Z,5.83
2023-03-14T16:13:01.431Z,6.36
2023-03-14T16:15:28.052Z,6.34
2023-03-14T16:17:55.906Z,6.23
2023-03-14T16:20:23.707Z,6.16
2023-03-14T16:22:50.697Z,5.85
2023-03-14T16:25:18.938Z,5.95
2023-03-14T16:27:45.667Z,5.70
2023-03-14T16:30:14.086Z,5.87
2023-03-14T16:32:40.987Z,5.80
2023-03-14T16:35:08.355Z,5.36
2023-03-14T16:37:35.062Z,5.43
2023-03-14T16:40:12.109Z,5.48
2023-03-14T16:45:26.641Z,5.49
2023-03-14T16:47:53.266Z,5.58
2023-03-14T16:50:19.963Z,5.74
2023-03-14T16:52:47.966Z,5.34
2023-03-14T16:55:14.678Z,5.27
2023-03-14T16:57:41.504Z,5.19
2023-03-14T17:00:11.789Z,5.23
2023-03-14T17:02:38.873Z,5.23
2023-03-14T17:05:05.916Z,5.13
2023-03-14T17:07:32.637Z,5.10
2023-03-14T17:09:59.379Z,4.99
2023-03-14T17:12:25.996Z,5.00
2023-03-14T17:14:53.466Z,4.95
2023-03-14T17:17:20.171Z,5.05
2023-03-14T17:19:46.900Z,5.06
2023-03-14T17:22:23.321Z,5.15
2023-03-14T17:24:50.831Z,4.96
2023-03-14T17:27:20.193Z,5.02
2023-03-14T17:29:47.779Z,5.05
2023-03-14T17:32:17.802Z,4.97
2023-03-14T17:34:44.916Z,4.91
2023-03-14T17:37:12.344Z,4.75
2023-03-14T17:39:39.536Z,4.33
2023-03-14T17:42:06.786Z,3.99
2023-03-14T17:44:34.800Z,3.82
2023-03-14T17:47:01.873Z,3.84
2023-03-14T17:49:28.709Z,3.86
2023-03-14T17:51:55.465Z,3.94
2023-03-14T17:54:22.227Z,3.85
2023-03-14T17:56:49.069Z,4.01
2023-03-14T17:59:16.186Z,3.67
2023-03-14T18:01:43.022Z,3.23
2023-03-14T18:04:09.887Z,3.11
2023-03-14T18:06:36.676Z,2.63
2023-03-14T18:09:05.845Z,3.06
2023-03-14T18:11:32.864Z,2.87
2023-03-14T18:14:01.721Z,2.97
2023-03-14T18:16:28.618Z,2.71
2023-03-14T18:18:57.226Z,2.96
2023-03-14T18:21:23.981Z,2.34
2023-03-14T18:23:50.844Z,2.40
2023-03-14T18:26:18.103Z,2.04
2023-03-14T18:28:45.872Z,2.09
2023-03-14T18:31:16.595Z,2.33
2023-03-14T18:33:45.427Z,2.46
2023-03-14T18:36:13.006Z,2.34
2023-03-14T18:38:43.423Z,2.20
2023-03-14T18:41:15.706Z,2.21
2023-03-14T18:43:43.467Z,2.20
2023-03-14T18:46:13.471Z,2.24
2023-03-14T18:48:43.342Z,2.14
2023-03-14T18:51:15.282Z,2.26
2023-03-14T18:53:43.281Z,2.25
2023-03-14T18:56:13.763Z,2.19
2023-03-14T18:58:41.124Z,2.16
2023-03-14T19:01:08.030Z,2.37
2023-03-14T19:03:37.641Z,2.43
2023-03-14T19:06:08.772Z,2.56
2023-03-14T19:08:37.266Z,2.51
2023-03-14T19:11:07.143Z,2.47
2023-03-14T19:13:35.199Z,2.58
2023-03-14T19:16:02.694Z,2.43
2023-03-14T19:18:29.590Z,2.46
2023-03-14T19:20:58.779Z,2.44
2023-03-14T19:23:26.232Z,2.35
2023-03-14T19:25:53.558Z,2.09
2023-03-14T19:28:20.858Z,2.05
2023-03-14T19:30:48.486Z,2.08
2023-03-14T19:33:16.739Z,2.03
2023-03-14T19:35:44.598Z,1.99
2023-03-14T19:38:11.968Z,1.85
2023-03-14T19:40:40.822Z,1.98
2023-03-14T19:43:07.831Z,2.01
2023-03-14T19:45:36.773Z,1.92
2023-03-14T19:48:06.213Z,2.04
2023-03-14T19:50:34.176Z,2.10
2023-03-14T19:53:03.428Z,2.07
2023-03-14T19:55:34.726Z,2.20
2023-03-14T19:58:01.500Z,2.23
2023-03-14T20:00:28.264Z,2.18
2023-03-14T20:02:55.025Z,2.37
2023-03-14T20:05:23.675Z,2.52
2023-03-14T20:07:51.846Z,2.52
2023-03-14T20:10:22.847Z,2.51
2023-03-14T20:12:51.054Z,2.51
2023-03-14T20:15:19.917Z,2.55
2023-03-14T20:17:51.171Z,2.56
2023-03-14T20:20:19.083Z,2.21
2023-03-14T20:22:46.199Z,1.95
2023-03-14T20:25:18.666Z,1.86
2023-03-14T20:27:50.189Z,1.88
2023-03-14T20:30:21.201Z,1.68
2023-03-14T20:32:49.803Z,1.82
2023-03-14T20:35:23.698Z,1.89
2023-03-14T20:37:56.204Z,1.89
2023-03-14T20:40:24.448Z,2.04
2023-03-14T20:42:51.960Z,2.14
2023-03-14T20:45:18.748Z,2.14
2023-03-14T20:47:45.464Z,2.24
2023-03-14T20:50:13.089Z,2.25
2023-03-14T20:52:40.152Z,2.35
2023-03-14T20:55:07.658Z,2.40
2023-03-14T20:57:34.336Z,2.20
2023-03-14T21:00:01.016Z,1.90
2023-03-14T21:02:27.774Z,2.26
2023-03-14T21:04:57.342Z,2.35
2023-03-14T21:07:24.108Z,2.44
2023-03-14T21:09:50.835Z,2.60
2023-03-14T21:12:17.543Z,2.50
2023-03-14T21:14:44.544Z,2.38
2023-03-14T21:17:11.337Z,2.31
2023-03-14T21:19:38.025Z,2.27
2023-03-14T21:22:05.738Z,2.48
2023-03-14T21:24:34.469Z,2.63
2023-03-14T21:27:01.303Z,2.59
2023-03-14T21:29:28.088Z,2.54
2023-03-14T21:31:54.830Z,2.27
2023-03-14T21:34:26.516Z,2.11
2023-03-14T21:36:55.442Z,1.92
2023-03-14T21:39:22.350Z,1.85
2023-03-14T21:41:49.036Z,1.75
2023-03-14T21:44:16.326Z,1.78
2023-03-14T21:46:46.004Z,1.59
2023-03-14T21:49:16.860Z,1.60
2023-03-14T21:51:47.509Z,1.57
2023-03-14T21:54:15.827Z,1.64
2023-03-14T21:56:44.096Z,1.57
2023-03-14T21:59:11.680Z,1.71
2023-03-14T22:01:38.378Z,1.71
2023-03-14T22:04:05.102Z,1.58
2023-03-14T22:06:31.886Z,1.66
2023-03-14T22:08:58.622Z,1.46
2023-03-14T22:11:25.336Z,1.47
2023-03-14T22:13:52.111Z,1.44
2023-03-14T22:16:18.938Z,1.66
2023-03-14T22:18:45.737Z,1.85
2023-03-14T22:21:12.582Z,1.72
2023-03-14T22:23:39.294Z,1.63
2023-03-14T22:26:05.922Z,1.32
2023-03-14T22:28:32.624Z,1.37
2023-03-14T22:31:01.449Z,0.92
2023-03-14T22:33:31.295Z,0.78
2023-03-14T22:35:58.294Z,0.63
2023-03-14T22:38:25.365Z,0.97
2023-03-14T22:40:52.326Z,0.79
2023-03-14T22:43:19.297Z,0.84
2023-03-14T22:45:46.177Z,1.16
2023-03-14T22:48:13.000Z,1.14
2023-03-14T22:50:40.438Z,1.20
2023-03-14T22:53:07.167Z,0.79
2023-03-14T22:55:33.939Z,0.74
2023-03-14T22:58:00.744Z,0.81
2023-03-14T23:00:27.977Z,1.06
2023-03-14T23:02:54.918Z,0.44
2023-03-14T23:05:22.041Z,0.87
2023-03-14T23:07:48.932Z,1.08
2023-03-14T23:10:16.308Z,0.65
2023-03-14T23:12:45.187Z,1.04
2023-03-14T23:15:17.921Z,1.01
2023-03-14T23:17:45.096Z,1.22
2023-03-14T23:20:13.085Z,1.09
2023-03-14T23:22:39.855Z,0.94
2023-03-14T23:25:07.131Z,1.02
2023-03-14T23:27:33.959Z,1.10
2023-03-14T23:30:00.655Z,1.12
2023-03-14T23:32:27.566Z,1.17
2023-03-14T23:34:54.290Z,1.18
2023-03-14T23:37:23.307Z,1.12
2023-03-14T23:39:50.677Z,1.04
2023-03-14T23:42:17.427Z,1.19
2023-03-14T23:44:44.101Z,0.95
2023-03-14T23:47:10.751Z,1.16
2023-03-14T23:49:37.359Z,0.85
2023-03-14T23:52:04.323Z,0.77
2023-03-14T23:54:30.959Z,0.59
2023-03-14T23:56:57.684Z,0.70
2023-03-14T23:59:24.400Z,0.79
